sensor_id;sensor_type;location;lat;lon;timestamp;temperature;humidity
29551;DHT22;16488;52.396;10.696;2023-09-19T00:00:38;16.00;99.90
29551;DHT22;16488;52.396;10.696;2023-09-19T00:03:06;16.10;99.90
29551;DHT22;16488;52.396;10.696;2023-09-19T00:05:34;16.00;99.90
29551;DHT22;16488;52.396;10.696;2023-09-19T00:08:01;16.00;99.90
29551;DHT22;16488;52.396;10.696;2023-09-19T00:10:28;16.00;99.90
29551;DHT22;16488;52.396;10.696;2023-09-19T00:12:57;15.90;99.90
29551;DHT22;16488;52.396;10.696;2023-09-19T00:15:27;15.90;99.90
29551;DHT22;16488;52.396;10.696;2023-09-19T00:17:57;15.90;99.90
29551;DHT22;16488;52.396;10.696;2023-09-19T00:20:23;15.80;99.90
29551;DHT22;16488;52.396;10.696;2023-09-19T00:22:50;15.80;99.90
29551;DHT22;16488;52.396;10.696;2023-09-19T00:25:21;15.70;99.90
29551;DHT22;16488;52.396;10.696;2023-09-19T00:27:47;15.70;99.90
29551;DHT22;16488;52.396;10.696;2023-09-19T00:30:17;15.70;99.90
29551;DHT22;16488;52.396;10.696;2023-09-19T00:32:47;15.70;99.90
29551;DHT22;16488;52.396;10.696;2023-09-19T00:35:13;15.60;99.90
29551;DHT22;16488;52.396;10.696;2023-09-19T00:37:41;15.70;99.90
29551;DHT22;16488;52.396;10.696;2023-09-19T00:40:08;15.60;99.90
29551;DHT22;16488;52.396;10.696;2023-09-19T00:42:40;15.70;99.90
29551;DHT22;16488;52.396;10.696;2023-09-19T00:45:11;15.70;99.90
29551;DHT22;16488;52.396;10.696;2023-09-19T00:47:48;15.80;99.90
29551;DHT22;16488;52.396;10.696;2023-09-19T00:50:16;15.70;99.90
29551;DHT22;16488;52.396;10.696;2023-09-19T00:52:43;15.70;99.90
29551;DHT22;16488;52.396;10.696;2023-09-19T00:55:10;15.80;99.90
29551;DHT22;16488;52.396;10.696;2023-09-19T00:57:37;15.80;99.90
29551;DHT22;16488;52.396;10.696;2023-09-19T01:00:08;15.80;99.90
29551;DHT22;16488;52.396;10.696;2023-09-19T01:02:36;15.80;99.90
29551;DHT22;16488;52.396;10.696;2023-09-19T01:05:02;15.80;99.90
29551;DHT22;16488;52.396;10.696;2023-09-19T01:07:32;15.90;99.90
29551;DHT22;16488;52.396;10.696;2023-09-19T01:09:59;15.80;99.90
29551;DHT22;16488;52.396;10.696;2023-09-19T01:17:48;15.90;99.90
29551;DHT22;16488;52.396;10.696;2023-09-19T01:20:37;15.90;99.90
29551;DHT22;16488;52.396;10.696;2023-09-19T01:23:23;15.90;99.90
29551;DHT22;16488;52.396;10.696;2023-09-19T01:26:06;15.90;99.90
29551;DHT22;16488;52.396;10.696;2023-09-19T01:28:45;15.90;99.90
29551;DHT22;16488;52.396;10.696;2023-09-19T01:31:20;15.90;99.90
29551;DHT22;16488;52.396;10.696;2023-09-19T01:34:00;15.90;99.90
29551;DHT22;16488;52.396;10.696;2023-09-19T01:36:28;16.00;99.90
29551;DHT22;16488;52.396;10.696;2023-09-19T01:38:55;16.00;99.90
29551;DHT22;16488;52.396;10.696;2023-09-19T01:44:06;15.90;99.90
29551;DHT22;16488;52.396;10.696;2023-09-19T01:46:39;15.90;99.90
29551;DHT22;16488;52.396;10.696;2023-09-19T01:49:31;15.90;99.90
29551;DHT22;16488;52.396;10.696;2023-09-19T01:52:19;15.90;99.90
29551;DHT22;16488;52.396;10.696;2023-09-19T01:54:52;15.90;99.90
29551;DHT22;16488;52.396;10.696;2023-09-19T01:57:35;15.90;99.90
29551;DHT22;16488;52.396;10.696;2023-09-19T02:00:08;15.90;99.90
29551;DHT22;16488;52.396;10.696;2023-09-19T02:02:37;15.90;99.90
29551;DHT22;16488;52.396;10.696;2023-09-19T02:05:04;15.90;99.90
29551;DHT22;16488;52.396;10.696;2023-09-19T02:07:30;15.90;99.90
29551;DHT22;16488;52.396;10.696;2023-09-19T02:10:00;15.80;99.90
29551;DHT22;16488;52.396;10.696;2023-09-19T02:12:26;15.80;99.90
29551;DHT22;16488;52.396;10.696;2023-09-19T02:14:52;15.80;99.90
29551;DHT22;16488;52.396;10.696;2023-09-19T02:17:18;15.80;99.90
29551;DHT22;16488;52.396;10.696;2023-09-19T02:19:44;15.90;99.90
29551;DHT22;16488;52.396;10.696;2023-09-19T02:22:10;15.80;99.90
29551;DHT22;16488;52.396;10.696;2023-09-19T02:24:38;15.80;99.90
29551;DHT22;16488;52.396;10.696;2023-09-19T02:27:05;15.90;99.90
29551;DHT22;16488;52.396;10.696;2023-09-19T02:29:31;15.90;99.90
29551;DHT22;16488;52.396;10.696;2023-09-19T02:31:56;15.90;99.90
29551;DHT22;16488;52.396;10.696;2023-09-19T02:34:22;15.90;99.90
29551;DHT22;16488;52.396;10.696;2023-09-19T02:36:49;15.90;99.90
29551;DHT22;16488;52.396;10.696;2023-09-19T02:39:15;15.80;99.90
29551;DHT22;16488;52.396;10.696;2023-09-19T02:41:40;15.80;99.90
29551;DHT22;16488;52.396;10.696;2023-09-19T02:44:07;15.80;99.90
29551;DHT22;16488;52.396;10.696;2023-09-19T02:46:33;15.80;99.90
29551;DHT22;16488;52.396;10.696;2023-09-19T02:48:59;15.80;99.90
29551;DHT22;16488;52.396;10.696;2023-09-19T02:51:24;15.80;99.90
29551;DHT22;16488;52.396;10.696;2023-09-19T02:53:50;15.80;99.90
29551;DHT22;16488;52.396;10.696;2023-09-19T02:56:18;15.80;99.90
29551;DHT22;16488;52.396;10.696;2023-09-19T02:58:44;15.80;99.90
29551;DHT22;16488;52.396;10.696;2023-09-19T03:01:10;15.70;99.90
29551;DHT22;16488;52.396;10.696;2023-09-19T03:03:38;15.70;99.90
29551;DHT22;16488;52.396;10.696;2023-09-19T03:06:07;15.60;99.90
29551;DHT22;16488;52.396;10.696;2023-09-19T03:08:35;15.60;99.90
29551;DHT22;16488;52.396;10.696;2023-09-19T03:11:06;15.60;99.90
29551;DHT22;16488;52.396;10.696;2023-09-19T03:13:32;15.50;99.90
29551;DHT22;16488;52.396;10.696;2023-09-19T03:15:58;15.50;99.90
29551;DHT22;16488;52.396;10.696;2023-09-19T03:18:24;15.50;99.90
29551;DHT22;16488;52.396;10.696;2023-09-19T03:20:58;15.50;99.90
29551;DHT22;16488;52.396;10.696;2023-09-19T03:23:25;15.40;99.90
29551;DHT22;16488;52.396;10.696;2023-09-19T03:25:51;15.40;99.90
29551;DHT22;16488;52.396;10.696;2023-09-19T03:28:18;15.40;99.90
29551;DHT22;16488;52.396;10.696;2023-09-19T03:30:44;15.30;99.90
29551;DHT22;16488;52.396;10.696;2023-09-19T03:33:09;15.30;99.90
29551;DHT22;16488;52.396;10.696;2023-09-19T03:35:38;15.30;99.90
29551;DHT22;16488;52.396;10.696;2023-09-19T03:38:05;15.30;99.90
29551;DHT22;16488;52.396;10.696;2023-09-19T03:40:30;15.20;99.90
29551;DHT22;16488;52.396;10.696;2023-09-19T03:42:56;15.20;99.90
29551;DHT22;16488;52.396;10.696;2023-09-19T03:45:21;15.20;99.90
29551;DHT22;16488;52.396;10.696;2023-09-19T03:47:47;15.20;99.90
29551;DHT22;16488;52.396;10.696;2023-09-19T03:50:13;15.20;99.90
29551;DHT22;16488;52.396;10.696;2023-09-19T03:52:45;15.30;99.90
29551;DHT22;16488;52.396;10.696;2023-09-19T03:55:11;15.20;99.90
29551;DHT22;16488;52.396;10.696;2023-09-19T03:57:37;15.20;99.90
29551;DHT22;16488;52.396;10.696;2023-09-19T04:00:03;15.20;99.90
29551;DHT22;16488;52.396;10.696;2023-09-19T04:02:38;15.10;99.90
29551;DHT22;16488;52.396;10.696;2023-09-19T04:05:05;15.10;99.90
29551;DHT22;16488;52.396;10.696;2023-09-19T04:07:31;15.10;99.90
29551;DHT22;16488;52.396;10.696;2023-09-19T04:09:56;15.20;99.90
29551;DHT22;16488;52.396;10.696;2023-09-19T04:12:22;15.20;99.90
29551;DHT22;16488;52.396;10.696;2023-09-19T04:14:47;15.30;99.90
29551;DHT22;16488;52.396;10.696;2023-09-19T04:17:13;15.40;99.90
29551;DHT22;16488;52.396;10.696;2023-09-19T04:19:39;15.50;99.90
29551;DHT22;16488;52.396;10.696;2023-09-19T04:22:06;15.40;99.90
29551;DHT22;16488;52.396;10.696;2023-09-19T04:24:32;15.50;99.90
29551;DHT22;16488;52.396;10.696;2023-09-19T04:26:58;15.50;99.90
29551;DHT22;16488;52.396;10.696;2023-09-19T04:29:24;15.50;99.90
29551;DHT22;16488;52.396;10.696;2023-09-19T04:31:52;15.40;99.90
29551;DHT22;16488;52.396;10.696;2023-09-19T04:34:17;15.40;99.90
29551;DHT22;16488;52.396;10.696;2023-09-19T04:36:43;15.40;99.90
29551;DHT22;16488;52.396;10.696;2023-09-19T04:39:09;15.50;99.90
29551;DHT22;16488;52.396;10.696;2023-09-19T04:41:36;15.40;99.90
29551;DHT22;16488;52.396;10.696;2023-09-19T04:44:05;15.50;99.90
29551;DHT22;16488;52.396;10.696;2023-09-19T04:46:31;15.50;99.90
29551;DHT22;16488;52.396;10.696;2023-09-19T04:48:56;15.50;99.90
29551;DHT22;16488;52.396;10.696;2023-09-19T04:51:23;15.40;99.90
29551;DHT22;16488;52.396;10.696;2023-09-19T04:53:49;15.50;99.90
29551;DHT22;16488;52.396;10.696;2023-09-19T04:56:14;15.40;99.90
29551;DHT22;16488;52.396;10.696;2023-09-19T04:58:40;15.30;99.90
29551;DHT22;16488;52.396;10.696;2023-09-19T05:01:06;15.40;99.90
29551;DHT22;16488;52.396;10.696;2023-09-19T05:03:37;15.30;99.90
29551;DHT22;16488;52.396;10.696;2023-09-19T05:06:03;15.20;99.90
29551;DHT22;16488;52.396;10.696;2023-09-19T05:08:30;15.10;99.90
29551;DHT22;16488;52.396;10.696;2023-09-19T05:10:56;15.10;99.90
29551;DHT22;16488;52.396;10.696;2023-09-19T05:13:22;15.10;99.90
29551;DHT22;16488;52.396;10.696;2023-09-19T05:15:49;15.10;99.90
29551;DHT22;16488;52.396;10.696;2023-09-19T05:18:18;15.10;99.90
29551;DHT22;16488;52.396;10.696;2023-09-19T05:20:43;15.10;99.90
29551;DHT22;16488;52.396;10.696;2023-09-19T05:23:09;15.10;99.90
29551;DHT22;16488;52.396;10.696;2023-09-19T05:25:37;15.20;99.90
29551;DHT22;16488;52.396;10.696;2023-09-19T05:28:08;15.20;99.90
29551;DHT22;16488;52.396;10.696;2023-09-19T05:30:34;15.20;99.90
29551;DHT22;16488;52.396;10.696;2023-09-19T05:33:04;15.20;99.90
29551;DHT22;16488;52.396;10.696;2023-09-19T05:35:30;15.20;99.90
29551;DHT22;16488;52.396;10.696;2023-09-19T05:37:56;15.20;99.90
29551;DHT22;16488;52.396;10.696;2023-09-19T05:40:24;15.20;99.90
29551;DHT22;16488;52.396;10.696;2023-09-19T05:42:50;15.20;99.90
29551;DHT22;16488;52.396;10.696;2023-09-19T05:45:16;15.20;99.90
29551;DHT22;16488;52.396;10.696;2023-09-19T05:47:52;15.20;99.90
29551;DHT22;16488;52.396;10.696;2023-09-19T05:50:21;15.20;99.90
29551;DHT22;16488;52.396;10.696;2023-09-19T05:52:54;15.20;99.90
29551;DHT22;16488;52.396;10.696;2023-09-19T05:55:21;15.20;99.90
29551;DHT22;16488;52.396;10.696;2023-09-19T05:57:51;15.10;99.90
29551;DHT22;16488;52.396;10.696;2023-09-19T06:00:18;15.10;99.90
29551;DHT22;16488;52.396;10.696;2023-09-19T06:02:50;15.10;99.90
29551;DHT22;16488;52.396;10.696;2023-09-19T06:05:16;15.10;99.90
29551;DHT22;16488;52.396;10.696;2023-09-19T06:07:41;15.10;99.90
29551;DHT22;16488;52.396;10.696;2023-09-19T06:10:07;15.00;99.90
29551;DHT22;16488;52.396;10.696;2023-09-19T06:12:37;15.00;99.90
29551;DHT22;16488;52.396;10.696;2023-09-19T06:15:04;15.00;99.90
29551;DHT22;16488;52.396;10.696;2023-09-19T06:17:34;15.10;99.90
29551;DHT22;16488;52.396;10.696;2023-09-19T06:20:05;15.00;99.90
29551;DHT22;16488;52.396;10.696;2023-09-19T06:22:35;15.00;99.90
29551;DHT22;16488;52.396;10.696;2023-09-19T06:25:01;15.00;99.90
29551;DHT22;16488;52.396;10.696;2023-09-19T06:27:27;15.10;99.90
29551;DHT22;16488;52.396;10.696;2023-09-19T06:29:54;15.10;99.90
29551;DHT22;16488;52.396;10.696;2023-09-19T06:32:27;15.10;99.90
29551;DHT22;16488;52.396;10.696;2023-09-19T06:34:52;15.10;99.90
29551;DHT22;16488;52.396;10.696;2023-09-19T06:37:19;15.20;99.90
29551;DHT22;16488;52.396;10.696;2023-09-19T06:39:46;15.30;99.90
29551;DHT22;16488;52.396;10.696;2023-09-19T06:42:13;15.30;99.90
29551;DHT22;16488;52.396;10.696;2023-09-19T06:44:39;15.40;99.90
29551;DHT22;16488;52.396;10.696;2023-09-19T06:47:04;15.40;99.90
29551;DHT22;16488;52.396;10.696;2023-09-19T06:49:31;15.50;99.90
29551;DHT22;16488;52.396;10.696;2023-09-19T06:51:57;15.60;99.90
29551;DHT22;16488;52.396;10.696;2023-09-19T06:54:24;15.70;99.90
29551;DHT22;16488;52.396;10.696;2023-09-19T06:56:49;15.70;99.90
29551;DHT22;16488;52.396;10.696;2023-09-19T06:59:15;15.70;99.90
29551;DHT22;16488;52.396;10.696;2023-09-19T07:01:41;15.70;99.90
29551;DHT22;16488;52.396;10.696;2023-09-19T07:04:09;15.80;99.90
29551;DHT22;16488;52.396;10.696;2023-09-19T07:06:35;15.80;99.90
29551;DHT22;16488;52.396;10.696;2023-09-19T07:09:01;15.80;99.90
29551;DHT22;16488;52.396;10.696;2023-09-19T07:11:26;15.80;99.90
29551;DHT22;16488;52.396;10.696;2023-09-19T07:13:52;15.80;99.90
29551;DHT22;16488;52.396;10.696;2023-09-19T07:16:17;15.90;99.90
29551;DHT22;16488;52.396;10.696;2023-09-19T07:18:55;15.90;99.90
29551;DHT22;16488;52.396;10.696;2023-09-19T07:21:22;15.90;99.90
29551;DHT22;16488;52.396;10.696;2023-09-19T07:23:48;16.00;99.90
29551;DHT22;16488;52.396;10.696;2023-09-19T07:26:15;16.00;99.90
29551;DHT22;16488;52.396;10.696;2023-09-19T07:28:40;16.00;99.90
29551;DHT22;16488;52.396;10.696;2023-09-19T07:31:06;16.00;99.90
29551;DHT22;16488;52.396;10.696;2023-09-19T07:33:35;16.20;99.90
29551;DHT22;16488;52.396;10.696;2023-09-19T07:36:01;16.30;99.90
29551;DHT22;16488;52.396;10.696;2023-09-19T07:38:27;16.20;99.90
29551;DHT22;16488;52.396;10.696;2023-09-19T07:40:53;16.20;99.90
29551;DHT22;16488;52.396;10.696;2023-09-19T07:43:25;16.20;99.90
29551;DHT22;16488;52.396;10.696;2023-09-19T07:45:50;16.20;99.90
29551;DHT22;16488;52.396;10.696;2023-09-19T07:48:16;16.20;99.90
29551;DHT22;16488;52.396;10.696;2023-09-19T07:50:42;16.10;99.90
29551;DHT22;16488;52.396;10.696;2023-09-19T07:53:09;16.10;99.90
29551;DHT22;16488;52.396;10.696;2023-09-19T07:55:34;16.10;99.90
29551;DHT22;16488;52.396;10.696;2023-09-19T07:58:00;16.30;99.90
29551;DHT22;16488;52.396;10.696;2023-09-19T08:00:26;16.30;99.90
29551;DHT22;16488;52.396;10.696;2023-09-19T08:02:51;16.40;99.90
29551;DHT22;16488;52.396;10.696;2023-09-19T08:05:17;16.40;99.90
29551;DHT22;16488;52.396;10.696;2023-09-19T08:07:45;16.50;99.90
29551;DHT22;16488;52.396;10.696;2023-09-19T08:10:14;16.60;99.90
29551;DHT22;16488;52.396;10.696;2023-09-19T08:12:42;16.60;99.90
29551;DHT22;16488;52.396;10.696;2023-09-19T08:15:13;16.60;99.90
29551;DHT22;16488;52.396;10.696;2023-09-19T08:17:39;16.80;99.90
29551;DHT22;16488;52.396;10.696;2023-09-19T08:20:05;16.90;99.90
29551;DHT22;16488;52.396;10.696;2023-09-19T08:22:31;16.90;99.90
29551;DHT22;16488;52.396;10.696;2023-09-19T08:24:57;16.80;99.90
29551;DHT22;16488;52.396;10.696;2023-09-19T08:27:24;16.70;99.90
29551;DHT22;16488;52.396;10.696;2023-09-19T08:29:52;16.70;99.90
29551;DHT22;16488;52.396;10.696;2023-09-19T08:32:18;16.70;99.90
29551;DHT22;16488;52.396;10.696;2023-09-19T08:34:49;16.70;99.90
29551;DHT22;16488;52.396;10.696;2023-09-19T08:37:14;16.80;99.90
29551;DHT22;16488;52.396;10.696;2023-09-19T08:39:42;16.80;99.90
29551;DHT22;16488;52.396;10.696;2023-09-19T08:42:09;16.90;99.90
29551;DHT22;16488;52.396;10.696;2023-09-19T08:44:37;16.90;99.90
29551;DHT22;16488;52.396;10.696;2023-09-19T08:47:14;16.90;99.90
29551;DHT22;16488;52.396;10.696;2023-09-19T08:52:32;16.80;99.90
29551;DHT22;16488;52.396;10.696;2023-09-19T08:55:02;16.70;99.90
29551;DHT22;16488;52.396;10.696;2023-09-19T08:57:36;16.80;99.90
29551;DHT22;16488;52.396;10.696;2023-09-19T09:00:08;16.80;99.90
29551;DHT22;16488;52.396;10.696;2023-09-19T09:02:40;16.80;99.90
29551;DHT22;16488;52.396;10.696;2023-09-19T09:05:08;16.80;99.90
29551;DHT22;16488;52.396;10.696;2023-09-19T09:07:36;16.80;99.90
29551;DHT22;16488;52.396;10.696;2023-09-19T09:10:03;16.90;99.90
29551;DHT22;16488;52.396;10.696;2023-09-19T09:12:29;17.00;99.90
29551;DHT22;16488;52.396;10.696;2023-09-19T09:14:55;17.00;99.90
29551;DHT22;16488;52.396;10.696;2023-09-19T09:17:23;17.00;99.90
29551;DHT22;16488;52.396;10.696;2023-09-19T09:19:52;17.00;99.90
29551;DHT22;16488;52.396;10.696;2023-09-19T09:22:18;17.00;99.90
29551;DHT22;16488;52.396;10.696;2023-09-19T09:24:57;17.00;99.90
29551;DHT22;16488;52.396;10.696;2023-09-19T09:27:24;17.00;99.90
29551;DHT22;16488;52.396;10.696;2023-09-19T09:29:50;17.10;99.90
29551;DHT22;16488;52.396;10.696;2023-09-19T09:34:58;17.20;99.90
29551;DHT22;16488;52.396;10.696;2023-09-19T09:37:25;17.30;99.90
29551;DHT22;16488;52.396;10.696;2023-09-19T09:40:02;17.50;99.90
29551;DHT22;16488;52.396;10.696;2023-09-19T09:42:39;17.50;99.90
29551;DHT22;16488;52.396;10.696;2023-09-19T09:45:22;17.70;99.90
29551;DHT22;16488;52.396;10.696;2023-09-19T09:48:03;17.60;99.90
29551;DHT22;16488;52.396;10.696;2023-09-19T09:50:30;17.50;99.90
29551;DHT22;16488;52.396;10.696;2023-09-19T09:53:27;17.50;99.90
29551;DHT22;16488;52.396;10.696;2023-09-19T09:56:06;17.40;99.90
29551;DHT22;16488;52.396;10.696;2023-09-19T09:58:36;17.50;99.90
29551;DHT22;16488;52.396;10.696;2023-09-19T10:01:04;17.50;99.90
29551;DHT22;16488;52.396;10.696;2023-09-19T10:03:41;17.50;99.90
29551;DHT22;16488;52.396;10.696;2023-09-19T10:06:15;17.50;99.90
29551;DHT22;16488;52.396;10.696;2023-09-19T10:09:06;17.50;99.90
29551;DHT22;16488;52.396;10.696;2023-09-19T10:11:47;17.50;99.90
29551;DHT22;16488;52.396;10.696;2023-09-19T10:14:20;17.60;99.90
29551;DHT22;16488;52.396;10.696;2023-09-19T10:16:49;17.60;99.90
29551;DHT22;16488;52.396;10.696;2023-09-19T10:19:21;17.70;99.90
29551;DHT22;16488;52.396;10.696;2023-09-19T10:21:49;17.70;99.90
29551;DHT22;16488;52.396;10.696;2023-09-19T10:24:16;17.70;99.90
29551;DHT22;16488;52.396;10.696;2023-09-19T10:26:44;17.60;99.90
29551;DHT22;16488;52.396;10.696;2023-09-19T10:29:12;17.60;99.90
29551;DHT22;16488;52.396;10.696;2023-09-19T10:31:39;17.70;99.90
29551;DHT22;16488;52.396;10.696;2023-09-19T10:34:06;17.70;99.90
29551;DHT22;16488;52.396;10.696;2023-09-19T10:36:36;17.70;99.90
29551;DHT22;16488;52.396;10.696;2023-09-19T10:39:05;17.70;99.90
29551;DHT22;16488;52.396;10.696;2023-09-19T10:41:34;17.80;99.90
29551;DHT22;16488;52.396;10.696;2023-09-19T10:44:04;17.80;99.90
29551;DHT22;16488;52.396;10.696;2023-09-19T10:46:37;17.80;99.90
29551;DHT22;16488;52.396;10.696;2023-09-19T10:49:04;17.90;99.90
29551;DHT22;16488;52.396;10.696;2023-09-19T10:51:41;17.90;99.90
29551;DHT22;16488;52.396;10.696;2023-09-19T10:56:35;17.90;99.90
29551;DHT22;16488;52.396;10.696;2023-09-19T10:59:16;18.00;99.90
29551;DHT22;16488;52.396;10.696;2023-09-19T11:01:45;18.00;99.90
29551;DHT22;16488;52.396;10.696;2023-09-19T11:04:29;17.90;99.90
29551;DHT22;16488;52.396;10.696;2023-09-19T11:07:14;17.80;99.90
29551;DHT22;16488;52.396;10.696;2023-09-19T11:09:53;17.80;99.90
29551;DHT22;16488;52.396;10.696;2023-09-19T11:15:07;18.00;99.90
29551;DHT22;16488;52.396;10.696;2023-09-19T11:17:43;18.10;99.90
29551;DHT22;16488;52.396;10.696;2023-09-19T11:30:46;18.40;99.90
29551;DHT22;16488;52.396;10.696;2023-09-19T11:33:22;18.40;99.90
29551;DHT22;16488;52.396;10.696;2023-09-19T11:36:06;18.50;99.90
29551;DHT22;16488;52.396;10.696;2023-09-19T11:46:52;18.50;99.90
29551;DHT22;16488;52.396;10.696;2023-09-19T11:49:19;18.40;99.90
29551;DHT22;16488;52.396;10.696;2023-09-19T11:51:50;18.40;99.90
29551;DHT22;16488;52.396;10.696;2023-09-19T11:54:17;18.50;99.90
29551;DHT22;16488;52.396;10.696;2023-09-19T11:56:54;18.50;99.90
29551;DHT22;16488;52.396;10.696;2023-09-19T11:59:28;18.40;99.90
29551;DHT22;16488;52.396;10.696;2023-09-19T12:02:18;18.50;99.90
29551;DHT22;16488;52.396;10.696;2023-09-19T12:04:44;18.60;99.90
29551;DHT22;16488;52.396;10.696;2023-09-19T12:07:17;18.60;99.90
29551;DHT22;16488;52.396;10.696;2023-09-19T12:09:48;18.60;99.90
29551;DHT22;16488;52.396;10.696;2023-09-19T12:12:26;18.60;99.90
29551;DHT22;16488;52.396;10.696;2023-09-19T12:14:59;18.70;99.90
29551;DHT22;16488;52.396;10.696;2023-09-19T12:17:38;18.70;99.90
29551;DHT22;16488;52.396;10.696;2023-09-19T12:20:05;18.60;99.90
29551;DHT22;16488;52.396;10.696;2023-09-19T12:22:41;18.70;99.90
29551;DHT22;16488;52.396;10.696;2023-09-19T12:25:09;18.70;99.90
29551;DHT22;16488;52.396;10.696;2023-09-19T12:27:49;18.70;99.90
29551;DHT22;16488;52.396;10.696;2023-09-19T12:30:18;18.70;99.90
29551;DHT22;16488;52.396;10.696;2023-09-19T12:32:46;18.80;99.90
29551;DHT22;16488;52.396;10.696;2023-09-19T12:35:30;18.80;99.90
29551;DHT22;16488;52.396;10.696;2023-09-19T12:38:00;18.90;99.90
29551;DHT22;16488;52.396;10.696;2023-09-19T12:40:26;18.80;99.90
29551;DHT22;16488;52.396;10.696;2023-09-19T12:42:59;18.90;99.90
29551;DHT22;16488;52.396;10.696;2023-09-19T12:45:25;18.80;99.90
29551;DHT22;16488;52.396;10.696;2023-09-19T12:48:18;18.80;99.90
29551;DHT22;16488;52.396;10.696;2023-09-19T12:51:06;19.00;99.90
29551;DHT22;16488;52.396;10.696;2023-09-19T12:53:37;19.00;99.90
29551;DHT22;16488;52.396;10.696;2023-09-19T12:56:06;19.00;99.90
29551;DHT22;16488;52.396;10.696;2023-09-19T12:58:34;18.90;99.90
29551;DHT22;16488;52.396;10.696;2023-09-19T13:01:00;18.90;99.90
29551;DHT22;16488;52.396;10.696;2023-09-19T13:03:30;18.90;99.90
29551;DHT22;16488;52.396;10.696;2023-09-19T13:06:03;18.80;99.90
29551;DHT22;16488;52.396;10.696;2023-09-19T13:08:35;18.90;99.90
29551;DHT22;16488;52.396;10.696;2023-09-19T13:13:36;19.10;99.90
29551;DHT22;16488;52.396;10.696;2023-09-19T13:16:03;19.00;99.90
29551;DHT22;16488;52.396;10.696;2023-09-19T13:18:44;19.00;99.90
29551;DHT22;16488;52.396;10.696;2023-09-19T13:21:13;19.00;99.90
29551;DHT22;16488;52.396;10.696;2023-09-19T13:23:54;18.90;99.90
29551;DHT22;16488;52.396;10.696;2023-09-19T13:26:25;18.90;99.90
29551;DHT22;16488;52.396;10.696;2023-09-19T13:28:51;19.00;99.90
29551;DHT22;16488;52.396;10.696;2023-09-19T13:31:16;19.00;99.90
29551;DHT22;16488;52.396;10.696;2023-09-19T13:33:44;19.00;99.90
29551;DHT22;16488;52.396;10.696;2023-09-19T13:36:11;19.00;99.90
29551;DHT22;16488;52.396;10.696;2023-09-19T13:38:37;19.00;99.90
29551;DHT22;16488;52.396;10.696;2023-09-19T13:41:03;19.10;99.90
29551;DHT22;16488;52.396;10.696;2023-09-19T13:43:28;19.10;99.90
29551;DHT22;16488;52.396;10.696;2023-09-19T13:45:54;19.10;99.90
29551;DHT22;16488;52.396;10.696;2023-09-19T13:48:20;19.20;99.90
29551;DHT22;16488;52.396;10.696;2023-09-19T13:50:48;19.30;99.90
29551;DHT22;16488;52.396;10.696;2023-09-19T13:53:14;19.30;99.90
29551;DHT22;16488;52.396;10.696;2023-09-19T13:55:40;19.40;99.90
29551;DHT22;16488;52.396;10.696;2023-09-19T13:58:06;19.50;99.90
29551;DHT22;16488;52.396;10.696;2023-09-19T14:00:32;19.60;99.90
29551;DHT22;16488;52.396;10.696;2023-09-19T14:03:01;19.50;99.90
29551;DHT22;16488;52.396;10.696;2023-09-19T14:05:27;19.70;99.90
29551;DHT22;16488;52.396;10.696;2023-09-19T14:07:53;19.80;99.90
29551;DHT22;16488;52.396;10.696;2023-09-19T14:10:22;19.90;99.90
29551;DHT22;16488;52.396;10.696;2023-09-19T14:12:48;19.80;99.90
29551;DHT22;16488;52.396;10.696;2023-09-19T14:15:14;19.70;99.90
29551;DHT22;16488;52.396;10.696;2023-09-19T14:17:40;19.70;99.90
29551;DHT22;16488;52.396;10.696;2023-09-19T14:20:11;19.80;99.90
29551;DHT22;16488;52.396;10.696;2023-09-19T14:22:36;19.90;99.90
29551;DHT22;16488;52.396;10.696;2023-09-19T14:25:05;20.00;99.90
29551;DHT22;16488;52.396;10.696;2023-09-19T14:27:31;20.00;99.90
29551;DHT22;16488;52.396;10.696;2023-09-19T14:29:57;20.10;99.90
29551;DHT22;16488;52.396;10.696;2023-09-19T14:32:23;20.20;99.90
29551;DHT22;16488;52.396;10.696;2023-09-19T14:34:49;20.10;99.90
29551;DHT22;16488;52.396;10.696;2023-09-19T14:37:15;20.10;99.90
29551;DHT22;16488;52.396;10.696;2023-09-19T14:39:42;20.00;99.90
29551;DHT22;16488;52.396;10.696;2023-09-19T14:42:10;20.10;99.90
29551;DHT22;16488;52.396;10.696;2023-09-19T14:44:36;20.10;99.90
29551;DHT22;16488;52.396;10.696;2023-09-19T14:47:03;20.00;99.90
29551;DHT22;16488;52.396;10.696;2023-09-19T14:49:33;20.00;99.90
29551;DHT22;16488;52.396;10.696;2023-09-19T14:51:59;20.00;99.90
29551;DHT22;16488;52.396;10.696;2023-09-19T14:54:24;19.80;99.90
29551;DHT22;16488;52.396;10.696;2023-09-19T14:56:50;19.60;99.90
29551;DHT22;16488;52.396;10.696;2023-09-19T14:59:31;19.60;99.90
29551;DHT22;16488;52.396;10.696;2023-09-19T15:01:57;19.60;99.90
29551;DHT22;16488;52.396;10.696;2023-09-19T15:04:24;19.70;99.90
29551;DHT22;16488;52.396;10.696;2023-09-19T15:06:50;19.80;99.90
29551;DHT22;16488;52.396;10.696;2023-09-19T15:09:21;19.80;99.90
29551;DHT22;16488;52.396;10.696;2023-09-19T15:11:49;19.70;99.90
29551;DHT22;16488;52.396;10.696;2023-09-19T15:14:15;19.50;99.90
29551;DHT22;16488;52.396;10.696;2023-09-19T15:16:41;19.50;99.90
29551;DHT22;16488;52.396;10.696;2023-09-19T15:19:09;19.40;99.90
29551;DHT22;16488;52.396;10.696;2023-09-19T15:21:36;19.40;99.90
29551;DHT22;16488;52.396;10.696;2023-09-19T15:24:03;19.40;99.90
29551;DHT22;16488;52.396;10.696;2023-09-19T15:26:30;19.50;99.90
29551;DHT22;16488;52.396;10.696;2023-09-19T15:28:56;19.60;99.90
29551;DHT22;16488;52.396;10.696;2023-09-19T15:31:22;19.60;99.90
29551;DHT22;16488;52.396;10.696;2023-09-19T15:33:47;19.60;99.90
29551;DHT22;16488;52.396;10.696;2023-09-19T15:36:14;19.50;99.90
29551;DHT22;16488;52.396;10.696;2023-09-19T15:41:31;19.50;99.90
29551;DHT22;16488;52.396;10.696;2023-09-19T15:43:58;19.50;99.90
29551;DHT22;16488;52.396;10.696;2023-09-19T15:46:25;19.40;99.90
29551;DHT22;16488;52.396;10.696;2023-09-19T15:48:53;19.40;99.90
29551;DHT22;16488;52.396;10.696;2023-09-19T15:51:18;19.40;99.90
29551;DHT22;16488;52.396;10.696;2023-09-19T15:53:46;19.40;99.90
29551;DHT22;16488;52.396;10.696;2023-09-19T15:56:13;19.40;99.90
29551;DHT22;16488;52.396;10.696;2023-09-19T15:58:42;19.30;99.90
29551;DHT22;16488;52.396;10.696;2023-09-19T16:01:08;19.30;99.90
29551;DHT22;16488;52.396;10.696;2023-09-19T16:03:39;19.30;99.90
29551;DHT22;16488;52.396;10.696;2023-09-19T16:06:08;19.40;99.90
29551;DHT22;16488;52.396;10.696;2023-09-19T16:08:35;19.40;99.90